Time;durP1;ratioP1;P1;durP2;ratioP2;P2;SDS_P1;SDS_P2;PMS_P1;PMS_P2;Temp;Humidity;BMP_temperature;BMP_pressure;BME280_temperature;BME280_humidity;BME280_pressure;Samples;Min_cycle;Max_cycle;Signal;HPM_P1;HPM_P2
2023/03/18 00:00:38;;;;;;;2.37;1.43;;;;;;;12.25;58.33;100272.53;4995116;28;20783;-79
2023/03/18 00:03:05;;;;;;;2.47;1.57;;;;;;;12.25;58.61;100264.69;4994601;28;20243;-79
2023/03/18 00:05:31;;;;;;;1.63;1.43;;;;;;;12.16;59.65;100267.53;4994705;28;20207;-81
2023/03/18 00:07:58;;;;;;;1.70;1.60;;;;;;;12.07;60.32;100255.59;4995018;28;20245;-80
2023/03/18 00:10:25;;;;;;;1.60;1.30;;;;;;;12.14;59.10;100266.72;4995073;28;20310;-81
2023/03/18 00:12:52;;;;;;;1.20;1.10;;;;;;;12.09;59.47;100253.78;4995504;28;20276;-79
2023/03/18 00:15:19;;;;;;;1.77;1.30;;;;;;;12.07;60.40;100267.78;5014324;28;20252;-79
2023/03/18 00:17:47;;;;;;;2.13;1.53;;;;;;;12.12;59.11;100256.31;5014294;28;20296;-80
2023/03/18 00:20:17;;;;;;;3.03;1.60;;;;;;;12.03;59.55;100258.31;5014272;28;20234;-78
2023/03/18 00:22:44;;;;;;;2.63;1.80;;;;;;;12.05;59.68;100262.63;5013884;28;20219;-80
2023/03/18 00:25:13;;;;;;;4.23;1.43;;;;;;;12.08;60.80;100254.66;5014226;28;20206;-78
2023/03/18 00:27:39;;;;;;;3.30;1.40;;;;;;;12.10;61.74;100233.72;5014021;28;20274;-79
2023/03/18 00:30:07;;;;;;;4.10;1.60;;;;;;;12.07;62.20;100221.59;5012801;28;20241;-79
2023/03/18 00:32:34;;;;;;;3.60;1.77;;;;;;;12.07;60.86;100215.47;4974798;28;20215;-80
2023/03/18 00:35:02;;;;;;;2.13;1.67;;;;;;;12.03;61.18;100208.59;4974538;28;20689;-79
2023/03/18 00:37:32;;;;;;;2.37;1.63;;;;;;;12.03;61.33;100214.72;4974968;28;20306;-79
2023/03/18 00:40:03;;;;;;;5.37;1.60;;;;;;;12.02;61.92;100209.53;4975143;28;20271;-79
2023/03/18 00:42:35;;;;;;;3.87;1.70;;;;;;;11.92;58.37;100201.09;4974683;28;20206;-79
2023/03/18 00:45:03;;;;;;;3.40;1.60;;;;;;;11.93;59.23;100228.94;5004798;28;20206;-79
2023/03/18 00:47:29;;;;;;;1.90;1.57;;;;;;;11.86;61.97;100240.44;5014017;28;20208;-79
2023/03/18 00:49:56;;;;;;;1.70;1.60;;;;;;;11.88;60.94;100238.66;5013724;28;20724;-79
2023/03/18 00:52:24;;;;;;;1.93;1.77;;;;;;;11.85;63.61;100233.50;5013767;28;20672;-80
2023/03/18 00:54:50;;;;;;;1.33;1.23;;;;;;;11.89;63.60;100194.19;5013846;28;20233;-79
2023/03/18 00:57:17;;;;;;;1.77;1.60;;;;;;;11.95;63.56;100179.19;5014000;28;20345;-80
2023/03/18 00:59:44;;;;;;;1.63;1.37;;;;;;;11.94;63.17;100183.59;5012652;28;20226;-81
2023/03/18 01:02:10;;;;;;;2.50;1.73;;;;;;;11.89;62.54;100183.72;5013365;28;20210;-79
2023/03/18 01:04:37;;;;;;;2.50;1.50;;;;;;;11.93;64.29;100181.84;5013787;28;20238;-79
2023/03/18 01:07:03;;;;;;;1.90;1.70;;;;;;;11.96;63.63;100165.25;5013739;28;20236;-79
2023/03/18 01:09:31;;;;;;;4.10;1.40;;;;;;;11.98;63.43;100166.03;5013018;28;20646;-79
2023/03/18 01:11:57;;;;;;;1.80;1.70;;;;;;;11.96;62.76;100179.16;5013734;28;20215;-79
2023/03/18 01:14:24;;;;;;;2.80;1.27;;;;;;;11.97;63.32;100186.13;5006834;28;20234;-80
2023/03/18 01:16:50;;;;;;;2.38;1.55;;;;;;;11.96;61.20;100196.63;4993898;28;20484;-79
2023/03/18 01:19:17;;;;;;;1.80;1.47;;;;;;;11.98;62.27;100205.28;4993861;28;20388;-80
2023/03/18 01:21:43;;;;;;;2.20;1.40;;;;;;;11.92;62.65;100212.41;4993665;28;20269;-79
2023/03/18 01:24:10;;;;;;;2.37;1.43;;;;;;;11.93;62.83;100218.47;4993846;28;20210;-79
2023/03/18 01:26:38;;;;;;;4.37;1.80;;;;;;;11.93;62.94;100208.00;4993818;28;20214;-79
2023/03/18 01:29:04;;;;;;;2.73;1.40;;;;;;;11.94;62.85;100199.28;4993699;28;20718;-79
2023/03/18 01:31:33;;;;;;;1.90;1.50;;;;;;;11.88;63.65;100196.81;4993490;28;20192;-79
2023/03/18 01:33:59;;;;;;;1.37;1.10;;;;;;;11.84;62.81;100189.94;4993414;28;20238;-79
2023/03/18 01:36:27;;;;;;;5.60;1.90;;;;;;;11.85;63.48;100213.44;4993637;28;20272;-80
2023/03/18 01:38:53;;;;;;;1.83;1.73;;;;;;;11.75;63.63;100203.28;4993065;28;20639;-79
2023/03/18 01:41:19;;;;;;;2.13;1.50;;;;;;;11.71;64.31;100199.88;4993721;28;20341;-80
2023/03/18 01:43:47;;;;;;;2.90;1.43;;;;;;;11.70;64.61;100187.72;4993694;28;20219;-82
2023/03/18 01:46:32;;;;;;;2.03;1.47;;;;;;;11.66;64.43;100197.41;4994076;28;20205;-80
2023/03/18 01:49:01;;;;;;;2.60;1.67;;;;;;;11.74;64.88;100176.28;5003473;28;20226;-81
2023/03/18 01:51:28;;;;;;;2.53;1.63;;;;;;;11.77;65.20;100157.00;5016645;28;20217;-82
2023/03/18 01:53:58;;;;;;;1.80;1.60;;;;;;;11.71;64.81;100147.59;5016667;28;20271;-82
2023/03/18 01:56:24;;;;;;;1.63;1.50;;;;;;;11.66;65.65;100144.25;5016995;28;20230;-82
2023/03/18 01:58:56;;;;;;;2.80;1.50;;;;;;;11.67;65.63;100139.00;5017206;28;20205;-82
2023/03/18 02:01:28;;;;;;;2.50;1.53;;;;;;;11.70;65.17;100132.81;5017663;28;20232;-82
2023/03/18 02:03:55;;;;;;;2.67;1.50;;;;;;;11.69;65.82;100131.09;5017320;28;20245;-83
2023/03/18 02:06:22;;;;;;;2.97;1.80;;;;;;;11.69;65.59;100118.00;5015617;28;20249;-82
2023/03/18 02:08:48;;;;;;;3.30;1.70;;;;;;;11.72;66.12;100108.31;5017395;28;20209;-82
2023/03/18 02:11:15;;;;;;;3.23;1.67;;;;;;;11.79;65.83;100119.44;5017803;28;20236;-83
2023/03/18 02:13:44;;;;;;;3.87;2.50;;;;;;;11.80;65.11;100134.25;5006897;28;20226;-82
2023/03/18 02:16:18;;;;;;;1.50;1.40;;;;;;;11.85;65.52;100139.34;5004351;28;20230;-79
2023/03/18 02:18:49;;;;;;;2.27;1.73;;;;;;;11.78;64.23;100156.97;5009536;28;20249;-79
2023/03/18 02:21:39;;;;;;;3.37;1.40;;;;;;;11.72;65.94;100147.53;5009181;28;20641;-79
2023/03/18 02:24:14;;;;;;;2.50;1.67;;;;;;;11.71;66.48;100137.13;5017613;28;20281;-79
2023/03/18 02:26:50;;;;;;;1.97;1.60;;;;;;;11.66;67.05;100115.50;5028401;28;20209;-79
2023/03/18 02:29:20;;;;;;;5.17;1.63;;;;;;;11.62;67.61;100106.88;5028834;28;20272;-78
2023/03/18 02:31:47;;;;;;;3.80;1.50;;;;;;;11.61;67.73;100084.25;5026798;28;20206;-78
2023/03/18 02:34:14;;;;;;;3.67;2.80;;;;;;;11.64;67.89;100078.94;5027033;28;20209;-78
2023/03/18 02:36:41;;;;;;;3.33;1.90;;;;;;;11.51;68.98;100065.34;5027011;28;20285;-78
2023/03/18 02:39:12;;;;;;;3.10;1.50;;;;;;;11.46;69.66;100048.97;5025757;28;20237;-78
2023/03/18 02:41:38;;;;;;;3.10;1.80;;;;;;;11.43;70.49;100033.34;5014152;28;20199;-78
2023/03/18 02:44:05;;;;;;;3.33;1.77;;;;;;;11.46;70.42;100012.38;5006928;28;20570;-78
2023/03/18 02:46:38;;;;;;;4.70;1.93;;;;;;;11.47;71.47;99989.69;5005565;28;20214;-79
2023/03/18 02:49:07;;;;;;;2.13;1.83;;;;;;;11.49;71.90;99967.81;5005613;28;20226;-78
2023/03/18 02:51:35;;;;;;;2.60;1.90;;;;;;;11.52;72.13;99949.44;5008257;28;20217;-82
2023/03/18 02:54:05;;;;;;;2.33;2.13;;;;;;;11.56;72.82;99933.69;5003686;28;20213;-81
2023/03/18 02:56:32;;;;;;;3.87;2.00;;;;;;;11.51;73.82;99903.28;4999862;28;20226;-81
2023/03/18 02:58:58;;;;;;;3.43;2.20;;;;;;;11.43;75.50;99866.09;4999155;28;20223;-83
2023/03/18 03:01:24;;;;;;;3.87;2.67;;;;;;;11.40;76.91;99847.91;5010532;28;20202;-81
2023/03/18 03:03:52;;;;;;;2.73;2.40;;;;;;;11.40;76.68;99821.78;5019115;28;20574;-81
2023/03/18 03:06:19;;;;;;;3.00;2.20;;;;;;;11.36;77.69;99821.91;5018192;28;20233;-81
2023/03/18 03:08:45;;;;;;;3.37;2.27;;;;;;;11.36;78.04;99814.06;5017963;28;20210;-81
2023/03/18 03:11:11;;;;;;;3.70;2.40;;;;;;;11.25;79.31;99794.38;5018076;28;20217;-81
2023/03/18 03:13:39;;;;;;;3.23;2.57;;;;;;;11.26;80.62;99782.19;5017735;28;20249;-81
2023/03/18 03:16:06;;;;;;;4.70;2.43;;;;;;;11.19;82.17;99755.38;5006942;28;20226;-81
2023/03/18 03:18:34;;;;;;;2.70;2.20;;;;;;;11.18;82.32;99739.75;4998448;28;20242;-81
2023/03/18 03:21:01;;;;;;;3.00;2.60;;;;;;;11.21;82.07;99748.34;4997670;28;20305;-81
2023/03/18 03:23:28;;;;;;;2.87;2.67;;;;;;;11.24;81.90;99765.72;4997578;28;20689;-81
2023/03/18 03:25:55;;;;;;;4.13;2.37;;;;;;;11.26;82.89;99769.97;4997544;28;20217;-82
2023/03/18 03:28:21;;;;;;;3.70;3.20;;;;;;;11.18;84.78;99750.22;4998149;28;20210;-80
2023/03/18 03:30:48;;;;;;;3.10;2.83;;;;;;;11.18;85.75;99724.97;4997444;28;20300;-80
2023/03/18 03:33:15;;;;;;;6.50;2.73;;;;;;;11.17;85.80;99728.47;5008358;28;20206;-81
2023/03/18 03:35:41;;;;;;;4.60;3.20;;;;;;;11.10;87.32;99727.81;5017191;28;20210;-81
2023/03/18 03:38:09;;;;;;;4.97;4.57;;;;;;;10.78;88.37;99715.78;5017741;28;20727;-80
2023/03/18 03:40:36;;;;;;;4.10;2.90;;;;;;;10.93;88.23;99702.25;5017187;28;20273;-80
2023/03/18 03:43:02;;;;;;;5.10;3.33;;;;;;;10.97;87.93;99710.84;5016149;28;20237;-80
2023/03/18 03:45:29;;;;;;;4.10;3.60;;;;;;;10.93;89.83;99694.41;5016696;28;20210;-82
2023/03/18 03:47:55;;;;;;;4.03;3.63;;;;;;;10.95;89.63;99704.81;5016791;28;20205;-80
2023/03/18 03:50:23;;;;;;;5.27;3.17;;;;;;;10.97;90.11;99697.78;5008199;28;20304;-80
2023/03/18 03:52:49;;;;;;;3.87;3.57;;;;;;;10.96;89.88;99711.75;4996400;28;20631;-81
2023/03/18 03:55:20;;;;;;;4.40;4.00;;;;;;;10.96;90.56;99703.03;4996909;28;20209;-81
2023/03/18 03:57:47;;;;;;;4.67;3.97;;;;;;;11.01;90.19;99714.22;4996783;28;20265;-80
2023/03/18 04:00:17;;;;;;;6.83;5.30;;;;;;;11.02;90.75;99718.50;4996251;28;20266;-81
2023/03/18 04:02:44;;;;;;;5.30;3.70;;;;;;;11.01;90.70;99728.09;4996150;28;20243;-80
2023/03/18 04:05:12;;;;;;;4.20;3.80;;;;;;;11.03;90.14;99730.69;4996721;28;20807;-81
2023/03/18 04:07:39;;;;;;;4.87;4.47;;;;;;;11.09;89.70;99746.16;5001865;28;20209;-80
2023/03/18 04:10:08;;;;;;;4.43;4.10;;;;;;;11.10;90.21;99755.72;5016294;28;20225;-80
2023/03/18 04:12:36;;;;;;;4.43;4.03;;;;;;;11.11;89.90;99755.63;5015514;28;20301;-81
2023/03/18 04:15:03;;;;;;;4.07;3.77;;;;;;;11.10;90.16;99760.94;5016031;28;20230;-80
2023/03/18 04:17:29;;;;;;;5.67;4.73;;;;;;;11.06;91.34;99749.72;5015477;28;20256;-79
2023/03/18 04:19:55;;;;;;;7.53;5.40;;;;;;;11.07;91.56;99742.72;5016090;28;20259;-80
2023/03/18 04:22:22;;;;;;;4.90;4.40;;;;;;;11.02;91.62;99753.34;5015789;28;20209;-80
2023/03/18 04:24:49;;;;;;;5.40;4.27;;;;;;;10.98;93.04;99730.84;5012086;28;20208;-80
2023/03/18 04:27:17;;;;;;;5.47;4.57;;;;;;;11.02;92.51;99735.06;4995589;28;20687;-80
2023/03/18 04:29:45;;;;;;;7.30;4.63;;;;;;;11.09;91.74;99761.81;4996484;28;20624;-81
2023/03/18 04:32:12;;;;;;;5.60;5.10;;;;;;;11.15;90.64;99781.66;4995766;28;20203;-80
2023/03/18 04:34:38;;;;;;;5.40;4.37;;;;;;;11.17;91.17;99801.59;4995851;28;20237;-80
2023/03/18 04:37:04;;;;;;;4.10;3.67;;;;;;;11.13;90.96;99806.06;4994884;28;20231;-80
2023/03/18 04:39:31;;;;;;;5.47;4.43;;;;;;;11.14;90.72;99817.41;4995422;28;20234;-80
2023/03/18 04:41:57;;;;;;;4.43;3.90;;;;;;;11.15;90.45;99829.53;4995563;28;20697;-80
2023/03/18 04:44:24;;;;;;;4.63;4.03;;;;;;;11.08;91.76;99814.94;4996705;28;20230;-81
2023/03/18 04:46:52;;;;;;;5.10;4.57;;;;;;;11.06;91.14;99817.63;4995781;28;20207;-81
2023/03/18 04:49:18;;;;;;;4.27;3.80;;;;;;;11.04;90.80;99823.78;4995334;28;20934;-79
2023/03/18 04:51:45;;;;;;;3.90;3.60;;;;;;;10.99;91.01;99818.72;4995527;28;20289;-79
2023/03/18 04:54:11;;;;;;;5.87;4.43;;;;;;;10.98;91.13;99816.13;4995810;28;20218;-79
2023/03/18 04:56:38;;;;;;;4.13;3.63;;;;;;;10.94;90.22;99825.81;4995356;28;20230;-79
2023/03/18 04:59:04;;;;;;;4.20;3.77;;;;;;;10.90;90.63;99832.91;4995215;28;20602;-81
2023/03/18 05:01:32;;;;;;;4.40;3.87;;;;;;;10.90;90.60;99818.97;5007240;28;20203;-79
2023/03/18 05:04:00;;;;;;;4.87;4.17;;;;;;;10.88;90.72;99832.09;5014588;28;20268;-78
2023/03/18 05:06:28;;;;;;;8.10;4.07;;;;;;;10.83;91.56;99830.53;5014659;28;20210;-81
2023/03/18 05:08:55;;;;;;;3.87;3.57;;;;;;;10.90;90.88;99822.47;5014579;28;20232;-81
2023/03/18 05:11:22;;;;;;;5.03;3.67;;;;;;;10.82;91.69;99829.69;5015000;28;20255;-81
2023/03/18 05:13:49;;;;;;;5.33;4.10;;;;;;;10.81;91.31;99827.94;5014560;28;20709;-80
2023/03/18 05:16:15;;;;;;;3.70;3.40;;;;;;;10.81;91.72;99820.13;5014799;28;20210;-79
2023/03/18 05:18:41;;;;;;;3.63;3.30;;;;;;;10.76;91.36;99836.81;5002918;28;20288;-78
2023/03/18 05:21:09;;;;;;;3.60;3.27;;;;;;;10.74;90.97;99836.84;4995190;28;20210;-80
2023/03/18 05:23:36;;;;;;;3.27;3.07;;;;;;;10.66;91.68;99836.22;4994612;28;20213;-80
2023/03/18 05:26:04;;;;;;;4.53;2.77;;;;;;;10.67;91.40;99841.41;4995440;28;20224;-80
2023/03/18 05:28:31;;;;;;;3.97;3.03;;;;;;;10.53;91.74;99843.56;4995106;28;20592;-80
2023/03/18 05:30:58;;;;;;;3.93;3.20;;;;;;;10.44;92.71;99830.78;4995084;28;20261;-80
2023/03/18 05:33:24;;;;;;;3.93;2.77;;;;;;;10.45;92.30;99822.91;4994651;28;20237;-81
2023/03/18 05:35:50;;;;;;;5.00;3.00;;;;;;;10.38;93.03;99829.19;4995935;28;20234;-79
2023/03/18 05:38:18;;;;;;;3.33;2.90;;;;;;;10.33;92.09;99837.16;4995017;28;20762;-81
2023/03/18 05:40:45;;;;;;;3.27;2.90;;;;;;;10.29;92.48;99835.50;4995263;28;20271;-78
2023/03/18 05:43:11;;;;;;;3.77;2.53;;;;;;;10.31;92.18;99843.31;4994897;28;20239;-80
2023/03/18 05:45:37;;;;;;;2.90;2.60;;;;;;;10.28;91.72;99851.19;4994819;28;20232;-81
2023/03/18 05:48:05;;;;;;;3.10;2.80;;;;;;;10.29;91.30;99852.91;4994926;28;20745;-81
2023/03/18 05:50:33;;;;;;;3.27;2.00;;;;;;;10.29;91.08;99858.97;4999287;28;20227;-81
2023/03/18 05:52:59;;;;;;;4.33;2.90;;;;;;;10.30;90.87;99886.78;5000004;28;20234;-80
2023/03/18 05:55:28;;;;;;;3.50;2.60;;;;;;;10.34;90.28;99888.41;4998958;28;20242;-80
2023/03/18 05:57:55;;;;;;;2.97;2.20;;;;;;;10.34;89.54;99906.66;4999146;28;20721;-80
2023/03/18 06:00:21;;;;;;;3.30;2.20;;;;;;;10.16;90.60;99916.72;4998627;28;20258;-80
2023/03/18 06:02:48;;;;;;;3.10;2.20;;;;;;;10.14;91.29;99895.88;4998434;28;20239;-80
2023/03/18 06:05:15;;;;;;;3.63;2.23;;;;;;;10.04;91.64;99882.22;4998240;28;20209;-80
2023/03/18 06:07:41;;;;;;;3.27;2.97;;;;;;;10.04;91.23;99879.63;4998592;28;20206;-81
2023/03/18 06:10:09;;;;;;;6.37;2.80;;;;;;;10.07;91.22;99881.31;5000106;28;20220;-79
2023/03/18 06:12:37;;;;;;;3.37;2.70;;;;;;;10.05;91.99;99870.03;5017807;28;20211;-81
2023/03/18 06:15:03;;;;;;;5.00;4.00;;;;;;;9.99;91.55;99875.41;5018190;28;20249;-80
2023/03/18 06:17:30;;;;;;;3.93;3.00;;;;;;;10.10;91.22;99887.28;5017558;28;20268;-81
2023/03/18 06:19:57;;;;;;;2.40;2.20;;;;;;;10.13;90.94;99899.41;5017592;28;20227;-79
2023/03/18 06:22:24;;;;;;;2.77;2.37;;;;;;;10.21;90.82;99904.41;5018043;28;20317;-79
2023/03/18 06:24:51;;;;;;;2.53;2.33;;;;;;;10.28;89.67;99919.84;5017893;28;20201;-81
2023/03/18 06:27:17;;;;;;;4.47;3.13;;;;;;;10.32;89.72;99920.66;5018646;28;20207;-80
2023/03/18 06:29:45;;;;;;;2.57;2.37;;;;;;;10.33;89.94;99920.63;5016907;28;20261;-81
2023/03/18 06:32:11;;;;;;;4.23;2.13;;;;;;;10.37;89.36;99942.28;5017904;28;20227;-81
2023/03/18 06:34:38;;;;;;;2.73;2.40;;;;;;;10.36;88.94;99951.00;5017713;28;20252;-81
2023/03/18 06:37:04;;;;;;;5.63;2.70;;;;;;;10.40;88.33;99957.84;5019023;28;20699;-80
2023/03/18 06:39:30;;;;;;;2.43;2.17;;;;;;;10.38;88.93;99962.25;5018614;28;20231;-82
2023/03/18 06:41:57;;;;;;;3.63;2.40;;;;;;;10.42;89.16;99963.88;5019282;28;20215;-81
2023/03/18 06:44:24;;;;;;;2.60;2.33;;;;;;;10.44;88.62;99971.66;5019019;28;20210;-81
2023/03/18 06:46:52;;;;;;;4.90;2.63;;;;;;;10.54;88.03;99980.97;5003048;28;20262;-81
2023/03/18 06:49:19;;;;;;;4.43;3.00;;;;;;;10.44;89.39;99982.94;4999922;28;20232;-80
2023/03/18 06:51:46;;;;;;;2.57;2.23;;;;;;;10.51;88.97;99978.44;5000002;28;20218;-81
2023/03/18 06:54:13;;;;;;;4.50;3.23;;;;;;;10.56;89.06;99970.50;4999718;28;20212;-80
2023/03/18 06:56:40;;;;;;;4.67;2.47;;;;;;;10.58;89.14;99979.13;4999927;28;20223;-79
2023/03/18 06:59:08;;;;;;;2.93;2.60;;;;;;;10.56;89.49;99970.50;4998956;28;20244;-80
2023/03/18 07:01:34;;;;;;;3.00;2.53;;;;;;;10.57;89.86;99965.25;4998733;28;20206;-80
2023/03/18 07:04:05;;;;;;;3.93;2.47;;;;;;;10.54;90.13;99967.91;5000374;28;20207;-82
2023/03/18 07:06:32;;;;;;;3.73;2.87;;;;;;;10.48;90.30;99958.50;4999313;28;20209;-82
2023/03/18 07:09:00;;;;;;;3.57;2.97;;;;;;;10.46;91.14;99944.63;4999072;28;20203;-82
2023/03/18 07:11:26;;;;;;;4.00;2.73;;;;;;;10.35;92.71;99923.22;4999152;28;20217;-81
2023/03/18 07:13:53;;;;;;;3.97;3.00;;;;;;;10.43;93.42;99895.16;4999026;28;20209;-81
2023/03/18 07:16:19;;;;;;;4.80;3.30;;;;;;;10.48;93.09;99895.03;4999353;28;20208;-82
2023/03/18 07:18:46;;;;;;;2.80;2.60;;;;;;;10.61;92.96;99898.16;4998683;28;20229;-80
2023/03/18 07:21:15;;;;;;;4.07;2.90;;;;;;;10.66;92.79;99906.69;4999023;28;20206;-81
2023/03/18 07:23:41;;;;;;;3.10;2.80;;;;;;;10.79;92.47;99908.06;4998158;28;20703;-82
2023/03/18 07:26:08;;;;;;;3.70;2.53;;;;;;;10.88;92.14;99926.09;4998399;28;20609;-81
2023/03/18 07:28:34;;;;;;;5.27;3.10;;;;;;;10.88;92.61;99933.06;5008442;28;20245;-82
2023/03/18 07:31:00;;;;;;;6.17;3.23;;;;;;;10.95;92.44;99932.00;4998331;28;20239;-81
2023/03/18 07:33:27;;;;;;;2.97;2.73;;;;;;;10.98;92.67;99934.53;4998636;28;20215;-82
2023/03/18 07:35:54;;;;;;;2.97;2.67;;;;;;;11.12;91.71;99940.19;4999189;28;20207;-82
2023/03/18 07:38:22;;;;;;;4.43;2.80;;;;;;;11.11;93.89;99927.19;5000027;28;20222;-82
2023/03/18 07:40:48;;;;;;;4.43;3.00;;;;;;;11.25;93.80;99924.16;4999569;28;20230;-81
2023/03/18 07:43:16;;;;;;;3.43;3.13;;;;;;;11.39;93.86;99921.13;4999192;28;20814;-82
2023/03/18 07:45:43;;;;;;;3.30;3.00;;;;;;;11.55;92.94;99930.19;4999018;28;20217;-81
2023/03/18 07:48:09;;;;;;;4.63;2.50;;;;;;;11.65;93.43;99936.84;4999799;28;20257;-80
2023/03/18 07:50:35;;;;;;;3.60;2.50;;;;;;;11.78;92.17;99942.56;4999315;28;20233;-81
2023/03/18 07:53:03;;;;;;;3.57;2.97;;;;;;;11.76;91.60;99959.19;4999184;28;20227;-82
2023/03/18 07:55:30;;;;;;;3.53;2.50;;;;;;;11.81;92.15;99968.59;5005958;28;20574;-82
2023/03/18 07:57:57;;;;;;;2.87;2.43;;;;;;;11.89;91.86;99984.94;5017378;28;20258;-82
2023/03/18 08:00:24;;;;;;;5.00;2.87;;;;;;;12.02;90.44;99998.47;5017610;28;20226;-79
2023/03/18 08:02:51;;;;;;;2.70;2.50;;;;;;;12.11;90.11;100011.28;5014802;28;20214;-80
2023/03/18 08:05:18;;;;;;;4.00;2.70;;;;;;;12.30;90.20;100018.53;5014709;28;20616;-80
2023/03/18 08:07:45;;;;;;;6.07;2.90;;;;;;;12.35;89.40;100036.69;5014461;28;20214;-79
2023/03/18 08:10:13;;;;;;;4.63;2.80;;;;;;;12.33;89.60;100052.47;5001260;28;20639;-79
2023/03/18 08:12:41;;;;;;;2.67;2.40;;;;;;;12.42;89.85;100056.53;4994806;28;20204;-79
2023/03/18 08:15:10;;;;;;;3.03;2.70;;;;;;;12.51;88.97;100066.72;4995530;28;20242;-79
2023/03/18 08:17:36;;;;;;;3.07;2.57;;;;;;;12.35;88.47;100086.41;4995271;28;20210;-79
2023/03/18 08:20:03;;;;;;;5.00;2.40;;;;;;;12.37;88.36;100100.31;4995209;28;20258;-79
2023/03/18 08:22:29;;;;;;;2.67;2.47;;;;;;;12.45;88.55;100093.09;4995005;28;20217;-79
2023/03/18 08:24:57;;;;;;;3.73;2.70;;;;;;;12.45;88.62;100098.31;4995488;28;20235;-79
2023/03/18 08:27:23;;;;;;;2.80;2.47;;;;;;;12.48;88.63;100088.59;4995516;28;20215;-80
2023/03/18 08:29:51;;;;;;;3.30;2.70;;;;;;;12.48;89.23;100093.81;4995211;28;20261;-81
2023/03/18 08:32:17;;;;;;;3.20;2.70;;;;;;;12.46;88.96;100089.53;4995133;28;20238;-82
2023/03/18 08:34:43;;;;;;;3.03;2.63;;;;;;;12.48;88.93;100078.09;4995065;28;20681;-83
2023/03/18 08:37:10;;;;;;;4.50;2.93;;;;;;;12.50;88.63;100088.53;4994704;28;20243;-82
2023/03/18 08:39:37;;;;;;;3.20;2.90;;;;;;;12.49;89.08;100084.22;4994733;28;20705;-82
2023/03/18 08:42:04;;;;;;;2.80;2.43;;;;;;;12.52;88.49;100087.56;5004462;28;20242;-81
2023/03/18 08:44:30;;;;;;;4.07;2.90;;;;;;;12.63;88.80;100084.63;5001659;28;20237;-79
2023/03/18 08:46:58;;;;;;;2.87;2.60;;;;;;;12.61;88.99;100093.44;4995897;28;20620;-78
2023/03/18 08:49:25;;;;;;;4.47;3.03;;;;;;;12.68;88.07;100108.88;4995571;28;20226;-80
2023/03/18 08:51:51;;;;;;;4.17;2.90;;;;;;;12.87;87.35;100118.75;5011818;28;20234;-78
2023/03/18 08:54:17;;;;;;;4.00;2.80;;;;;;;13.01;87.28;100136.63;5014615;28;20214;-79
2023/03/18 08:56:44;;;;;;;2.87;2.67;;;;;;;13.00;85.86;100161.09;5015330;28;20210;-80
2023/03/18 08:59:10;;;;;;;3.20;2.90;;;;;;;13.10;85.99;100168.63;5005535;28;20285;-78
2023/03/18 09:01:38;;;;;;;4.10;3.10;;;;;;;13.07;85.58;100184.44;4994906;28;20748;-78
2023/03/18 09:04:06;;;;;;;3.97;3.33;;;;;;;13.03;85.30;100195.94;4994995;28;20628;-79
2023/03/18 09:06:32;;;;;;;3.40;3.10;;;;;;;13.03;84.40;100216.03;4995405;28;20646;-80
2023/03/18 09:08:58;;;;;;;3.93;3.10;;;;;;;12.97;84.24;100230.19;4995268;28;20203;-82
2023/03/18 09:11:25;;;;;;;3.47;3.17;;;;;;;13.09;84.55;100228.94;4995544;28;20215;-78
2023/03/18 09:13:52;;;;;;;4.60;3.47;;;;;;;13.15;83.85;100236.59;5011272;28;20753;-78
2023/03/18 09:16:18;;;;;;;3.13;2.83;;;;;;;13.25;83.37;100256.34;4996307;28;20268;-79
2023/03/18 09:18:45;;;;;;;5.67;3.33;;;;;;;13.37;83.19;100268.22;4996578;28;20265;-78
2023/03/18 09:21:12;;;;;;;3.67;3.33;;;;;;;13.38;82.66;100282.19;4995924;28;20628;-80
2023/03/18 09:23:39;;;;;;;4.40;4.00;;;;;;;13.41;82.04;100295.22;4995416;28;20210;-79
2023/03/18 09:26:05;;;;;;;3.97;3.60;;;;;;;13.24;82.29;100295.72;4995596;28;20211;-79
2023/03/18 09:28:31;;;;;;;3.77;3.47;;;;;;;13.29;82.59;100296.44;5011735;28;20630;-81
2023/03/18 09:30:58;;;;;;;5.03;4.63;;;;;;;13.23;82.71;100296.63;4995435;28;20613;-78
2023/03/18 09:33:24;;;;;;;3.90;3.47;;;;;;;13.37;83.48;100277.88;4995411;28;20272;-80
2023/03/18 09:35:50;;;;;;;4.17;3.87;;;;;;;13.49;83.13;100274.84;4996045;28;20212;-79
2023/03/18 09:38:20;;;;;;;3.80;3.50;;;;;;;13.59;82.92;100262.28;4996752;28;20732;-79
2023/03/18 09:40:55;;;;;;;6.53;4.10;;;;;;;13.69;80.68;100301.22;4996360;28;20231;-78
2023/03/18 09:43:36;;;;;;;5.37;4.40;;;;;;;13.74;81.55;100295.84;4995651;28;20211;-79
2023/03/18 09:46:09;;;;;;;4.53;3.73;;;;;;;13.78;81.32;100307.94;5013234;28;20210;-80
2023/03/18 09:49:00;;;;;;;4.23;3.83;;;;;;;13.56;80.46;100343.66;5014645;28;20218;-80
2023/03/18 09:51:36;;;;;;;4.73;4.33;;;;;;;13.65;81.16;100336.34;5014401;28;20210;-79
2023/03/18 09:54:08;;;;;;;4.50;4.10;;;;;;;13.64;80.21;100339.91;5013724;28;20210;-79
2023/03/18 09:56:36;;;;;;;4.47;4.17;;;;;;;13.75;80.33;100339.53;5014387;28;20219;-78
2023/03/18 09:59:11;;;;;;;6.10;4.20;;;;;;;13.80;79.29;100369.09;5014189;28;20258;-80
2023/03/18 10:01:39;;;;;;;4.27;3.80;;;;;;;13.78;79.57;100368.28;5013561;28;20206;-78
2023/03/18 10:04:13;;;;;;;3.83;3.53;;;;;;;13.83;79.89;100363.72;5014112;28;20202;-79
2023/03/18 10:06:43;;;;;;;3.60;3.40;;;;;;;13.85;79.32;100387.28;5013792;28;20233;-78
2023/03/18 10:09:18;;;;;;;4.13;3.83;;;;;;;13.80;78.87;100389.22;5014138;28;20254;-81
2023/03/18 10:11:47;;;;;;;4.00;3.70;;;;;;;14.01;79.65;100396.41;5014003;28;20207;-79
2023/03/18 10:14:30;;;;;;;4.40;4.00;;;;;;;14.06;79.35;100399.69;5013698;28;20207;-79
2023/03/18 10:17:06;;;;;;;4.43;4.07;;;;;;;14.07;77.60;100429.41;5014161;28;20685;-79
2023/03/18 10:19:33;;;;;;;3.70;3.40;;;;;;;14.09;77.74;100435.47;5006540;28;20266;-79
2023/03/18 10:22:12;;;;;;;3.50;3.20;;;;;;;14.18;78.39;100437.81;4994190;28;20255;-79
2023/03/18 10:24:49;;;;;;;3.97;3.57;;;;;;;14.27;78.75;100419.13;4994004;28;20613;-78
2023/03/18 10:27:19;;;;;;;4.30;4.00;;;;;;;14.09;77.59;100435.47;4994100;28;20210;-79
2023/03/18 10:29:49;;;;;;;3.60;3.40;;;;;;;13.94;77.58;100444.72;4994725;28;20235;-78
2023/03/18 10:32:27;;;;;;;3.73;3.40;;;;;;;13.83;76.35;100467.81;4994139;28;20212;-79
2023/03/18 10:35:07;;;;;;;3.40;3.10;;;;;;;14.04;76.78;100469.75;4994393;28;20685;-81
2023/03/18 10:37:47;;;;;;;3.70;2.97;;;;;;;14.04;76.37;100472.38;5008937;28;20202;-78
2023/03/18 10:40:17;;;;;;;2.70;2.50;;;;;;;14.07;75.13;100488.06;5017379;28;20709;-80
2023/03/18 10:42:45;;;;;;;3.57;2.97;;;;;;;14.20;75.89;100483.25;5017733;28;20211;-78
2023/03/18 10:45:21;;;;;;;4.07;2.90;;;;;;;14.33;76.14;100469.69;5016951;28;20314;-81
2023/03/18 10:47:56;;;;;;;3.30;3.00;;;;;;;14.43;76.02;100465.84;5017476;28;20210;-79
2023/03/18 10:50:29;;;;;;;3.17;2.93;;;;;;;14.60;76.35;100457.41;5017153;28;20244;-79
2023/03/18 10:53:02;;;;;;;3.90;3.60;;;;;;;14.75;76.27;100456.88;5017014;28;20207;-79
2023/03/18 10:55:38;;;;;;;3.50;3.20;;;;;;;14.68;72.62;100510.53;4999322;28;20196;-79
2023/03/18 10:58:14;;;;;;;2.90;2.60;;;;;;;14.95;74.61;100531.53;4998173;28;20230;-81
2023/03/18 11:00:41;;;;;;;3.00;2.70;;;;;;;14.96;71.60;100549.00;4998187;28;20253;-83
2023/03/18 11:03:17;;;;;;;3.07;2.77;;;;;;;14.94;70.72;100601.63;4998035;28;20207;-81
2023/03/18 11:05:44;;;;;;;2.83;2.63;;;;;;;15.09;71.18;100626.53;4999112;28;20214;-82
2023/03/18 11:08:28;;;;;;;3.73;2.80;;;;;;;15.26;70.84;100624.19;4998771;28;20210;-82
2023/03/18 11:10:56;;;;;;;3.00;2.70;;;;;;;15.45;70.98;100605.94;4999397;28;20951;-81
2023/03/18 11:13:22;;;;;;;3.03;2.80;;;;;;;15.61;70.80;100615.91;5017895;28;20211;-83
2023/03/18 11:15:51;;;;;;;2.97;2.77;;;;;;;15.70;70.84;100618.22;5018062;28;20249;-83
2023/03/18 11:18:22;;;;;;;2.77;2.57;;;;;;;15.85;70.99;100624.69;5013261;28;20193;-81
2023/03/18 11:20:59;;;;;;;4.00;3.63;;;;;;;15.93;69.68;100650.72;4998931;28;20229;-82
2023/03/18 11:23:45;;;;;;;2.80;2.60;;;;;;;15.82;67.30;100693.25;4998737;28;20207;-82
2023/03/18 11:26:20;;;;;;;2.63;2.43;;;;;;;16.05;68.04;100713.44;4998668;28;20836;-82
2023/03/18 11:28:46;;;;;;;2.47;2.37;;;;;;;16.00;65.73;100757.56;5003605;28;20204;-83
2023/03/18 11:31:17;;;;;;;3.00;2.70;;;;;;;16.22;67.08;100766.38;5018656;28;20203;-83
2023/03/18 11:33:44;;;;;;;2.70;2.50;;;;;;;16.02;68.22;100776.78;5017760;28;20219;-82